Coupland, TX (78615)

10:00 PM CDT on March 28, 2017 (GMT -0500)
Coupland Fire Dept (ESD#10) | | Change Station
Active Advisory: Severe Thunderstorm Watch

Elev 525 ft 30.46 °N, 97.39 °W | Updated 8 minutes ago

Mostly Cloudy
Mostly Cloudy
74.1 °F
Feels Like 70 °F
N
5.8
Wind Variable Wind from ENE

Today
High -- | Low -- °F
--% Chance of Precip.
Yesterday
High -- | Low -- °F
Precip. -- in
Pressure 29.69 in
Visibility 10.0 miles
Clouds Few 2300 ft
Scattered Clouds 3400 ft
Heat Index 70 °F
Dew Point 74 °F
Humidity 99%
Rainfall 0.00 in
Snow Depth Not available.
7:23 AM 7:46 PM
New Moon, 1% visible
METAR KEDC 290255Z AUTO 14011KT 10SM FEW023 SCT034 22/19 A2969 RMK AO2
Pressure 29.69 in
Visibility 10.0 miles
Clouds Few 2300 ft
Scattered Clouds 3400 ft
Heat Index 70 °F
Dew Point 74 °F
Humidity 99%
Rainfall 0.00 in
Snow Depth Not available.
7:23 AM 7:46 PM
New Moon, 1% visible
METAR KEDC 290255Z AUTO 14011KT 10SM FEW023 SCT034 22/19 A2969 RMK AO2

Get Your Daily Forecast Email!

Thanks for signing up!

Be on the lookout for a verification email in your inbox.

You'll start receiving severe weather alerts in your inbox..

×

10-Day Weather Forecast

Almanac

Astronomy

Mar. 28, 2017 Rise Set
Actual Time
Civil Twilight
Nautical Twilight
Astronomical Twilight
Moon
Length of Visible Light
Length of Day
Tomorrow will be .
, % of the Moon is Illuminated

Today's Extremes

State Highs State Lows

Community

WunderPhotos

Upload Photos

1,962,540 photos uploaded!

WunderBlog® & News

Nearby

Air Quality

  Air Quality AQ Index Pollutant
Not available.

Snow Depth

Station Depth Elevation

Earthquake Activity

City Distance Mag. Time & Date
Minimum magnitude displayed is 2.5.

Earthquake Activity

City Distance Mag. Time & Date
Minimum magnitude displayed is 2.5.

Coastal Water Temperatures

Place Temperature

Stations

Nearby Weather Stations

Station Location Temp. Windchill Dew Point Humidity Wind Precip. Elev Updated Type
                   

Watches & Warnings

Severe Thunderstorm Watch
Issued: 9:43 PM CDT Mar. 28, 2017 – National Weather Service

Severe Thunderstorm Watch 96 remains in effect until 400 am CDT
for the following locations


TX
. Texas counties included are

Atascosa Bandera Bell
Bexar blanco Bosque
Brown Burnet Callahan
Coke Coleman Collin
Comal Comanche Concho
Cooke Coryell Crockett
Dallas Denton Dimmit
Eastland Edwards Ellis
Erath Fisher frio
Gillespie Grayson Guadalupe
Hamilton Haskell Hays
Hill Hood Jack
Johnson Jones Kendall
Kerr Kimble Kinney
Lampasas Llano McCulloch
McLennan Mason Maverick
Medina Menard Mills
Montague Nolan Palo Pinto
Parker real Runnels
San Saba Schleicher Shackelford
Somervell Stephens Sutton
Tarrant Taylor Throckmorton
Tom Green Travis Uvalde
Val Verde Williamson Wilson
wise Young Zavala